Tie Siding, WY (82084)

11:17 PM MDT on March 29, 2015 (GMT -0600)
WYDOT Pumpkin Vine US 287 south of Laramie | | Change Station
CLOSE
Current Station
Personal Weather Station
Location: Tie Siding, WY
Elevation: 8097 ft
Nearby Weather Stations

Elev 8097 ft 41.05 °N, 105.47 °W | Updated 102 days ago

Clear
Clear
37 °F
Feels Like 32 °F
N
7
Wind Variable Wind from West
Gusts mph

Today
High -- | Low -- °F
--% Chance of Precip.
Yesterday
High -- | Low -- °F
Precip. -- in
6:50 AM 7:23 PM
Waxing Gibbous, 77% visible
Pressure 30.08 in
Visibility 10.0 miles
Clouds Clear
Windchill 32 °F
Dew Point 17 °F
Humidity 42%
Rainfall in
Snow Depth Not available.
UV 0 out of 12
Pollen 9.10 out of 12
Air Quality Not available.
Flu Activity Not available.
METAR KLAR 300453Z AUTO 28004KT 10SM CLR 04/M11 A3021 RMK AO2 SLP186 T00441106

More Conditions Fewer Conditions

Pressure 30.08 in
Visibility 10.0 miles
Clouds Clear
Windchill 32 °F
Dew Point 17 °F
Humidity 42%
Rainfall in
Snow Depth Not available.
UV 0 out of 12
Pollen 9.10 out of 12
Air Quality Not available.
Flu Activity Not available.
METAR KLAR 300453Z AUTO 28004KT 10SM CLR 04/M11 A3021 RMK AO2 SLP186 T00441106

More Conditions Fewer Conditions

10-Day Weather Forecast

Almanac

Astronomy

Mar. 29, 2015 Rise Set
Actual Time
Civil Twilight
Nautical Twilight
Astronomical Twilight
Moon
Length of Visible Light
Length of Day
Tomorrow will be .
, % of the Moon is Illuminated

Today's Extremes

State Highs State Lows

Community

WunderPhotos

Upload Photos

1,809,437 photos uploaded!

WunderBlogs® & News

Nearby

Air Quality

  Air Quality AQ Index Pollutant
Not available.

Snow Depth

Station Depth Elevation

Earthquake Activity

City Distance Mag. Time & Date
Minimum magnitude displayed is 2.5.

Coastal Water Temperatures

Place Temperature

Stations

Nearby Weather Stations

Station Location Temp. Windchill Dew Point Humidity Wind Precip. Elev Updated Type